Igor I Sikorsky Memorial Airport
KBDR : now visible

Airfield :











YOU CAN JOIN US ON...

 
LOGIN :

Register | Disclaimer

   EN    FR    IT 

 









Legend :    VFR   Marginal VFR   IFR   Intensive IFR   Very Intensive IFR
Visi :
Ceiling :
>= 8 km
>= 3000ft
5 to 8 km
1000 to 3000 ft
1500m to 5 km
500 to 1000 ft
800 to 1500m
200 to 500 ft
< 800m
< 200 ft
Symbols :   Thunderstorms  Fog  Heavy snow  Heavy precipitations  Wind > 20 kt







- Airport Elevation : 9 ft
- IATA code : BDR


KBDR - Igor I Sikorsky Memorial

CURRENT METAR :
  • 210952Z AUTO 28009KT 10SM BKN050 15/06 A2984 RMK AO2 SLP103 T01500061

EXPIRED METARs :
  • 210852Z AUTO 29011G17KT 10SM CLR 16/06 A2981 RMK AO2 SLP096 T01560061 51017
  • 210752Z AUTO 31009KT 10SM CLR 17/08 A2980 RMK AO2 SLP091 T01670078

TAF KBDR
Valid from the 21 at 09:00 until the 22 at 06:00 UTC


210834Z 2109/2206 32009KT P6SM FEW250
FM211300 29013G19KT P6SM FEW040 FEW250
FM211500 28017G25KT P6SM FEW040 FEW250
FM212300 32012G21KT P6SM FEW250
FM220000 31006KT P6SM FEW250
KZBW FIR / North America



MET'MAP, your aeronautical weather chart ! - Copyright ORBIFLY December 2007 - Disclaimer

ORBIFLY MET'MAP TEAM :

Programming & Development : Alexandra Zaïnal
Concept & Development : Baudouin d'Aumeries
Co-Development & Prog : Marc-Olivier Méhu
Technical & hardware support : Manuel Goepfert

Contact : metmap@orbifly.com




SOURCES & CREDITS :

   NOAA       Earth
Advisory